Time;durP1;ratioP1;P1;durP2;ratioP2;P2;SDS_P1;SDS_P2;PMS_P1;PMS_P2;Temp;Humidity;BMP_temperature;BMP_pressure;BME280_temperature;BME280_humidity;BME280_pressure;Samples;Min_cycle;Max_cycle;Signal;HPM_P1;HPM_P2
2023/07/02 00:01:58;;;;;;;;;;;;;;;15.61;51.55;100517.03;7358438;19;19919;-58
2023/07/02 00:04:23;;;;;;;;;;;;;;;15.59;51.63;100516.25;7355472;19;19933;-59
2023/07/02 00:06:49;;;;;;;;;;;;;;;15.57;51.84;100523.38;7358741;19;19979;-57
2023/07/02 00:09:14;;;;;;;;;;;;;;;15.56;52.17;100516.41;7357083;19;20343;-59
2023/07/02 00:11:41;;;;;;;;;;;;;;;15.53;51.80;100503.41;7357860;19;19930;-59
2023/07/02 00:14:07;;;;;;;;;;;;;;;15.51;52.33;100506.09;7355797;19;20300;-58
2023/07/02 00:16:32;;;;;;;;;;;;;;;15.48;51.64;100505.38;7357308;19;19910;-58
2023/07/02 00:18:59;;;;;;;;;;;;;;;15.45;51.80;100510.78;7357603;19;19925;-58
2023/07/02 00:21:27;;;;;;;;;;;;;;;15.41;51.59;100509.19;7358118;19;19926;-58
2023/07/02 00:23:53;;;;;;;;;;;;;;;15.36;51.70;100503.28;7357185;19;19918;-58
2023/07/02 00:26:18;;;;;;;;;;;;;;;15.31;51.90;100503.53;7358076;19;21355;-58
2023/07/02 00:28:44;;;;;;;;;;;;;;;15.26;52.05;100510.78;7357225;19;20374;-58
2023/07/02 00:31:09;;;;;;;;;;;;;;;15.21;51.94;100513.63;7357628;19;19923;-58
2023/07/02 00:33:35;;;;;;;;;;;;;;;15.15;52.03;100511.22;7358064;19;19926;-58
2023/07/02 00:36:00;;;;;;;;;;;;;;;15.10;52.41;100515.84;7356763;19;20373;-57
2023/07/02 00:38:26;;;;;;;;;;;;;;;15.05;52.38;100512.56;7357036;19;19933;-59
2023/07/02 00:40:51;;;;;;;;;;;;;;;14.99;52.61;100513.69;7357173;19;20420;-58
2023/07/02 00:43:16;;;;;;;;;;;;;;;14.94;52.67;100520.94;7356095;19;20278;-58
2023/07/02 00:45:42;;;;;;;;;;;;;;;14.90;52.71;100514.13;7356397;19;19923;-58
2023/07/02 00:48:07;;;;;;;;;;;;;;;14.87;52.50;100513.38;7357014;19;19926;-58
2023/07/02 00:50:32;;;;;;;;;;;;;;;14.82;53.12;100504.84;7356202;19;20692;-58
2023/07/02 00:52:58;;;;;;;;;;;;;;;14.77;53.43;100503.28;7357872;19;19922;-58
2023/07/02 00:55:23;;;;;;;;;;;;;;;14.73;53.35;100509.56;7358299;19;19981;-59
2023/07/02 00:57:49;;;;;;;;;;;;;;;14.69;53.79;100509.75;7355482;19;19963;-58
2023/07/02 01:00:14;;;;;;;;;;;;;;;14.64;53.98;100504.69;7356329;19;20486;-57
2023/07/02 01:02:43;;;;;;;;;;;;;;;14.61;54.23;100509.25;7354959;19;19926;-58
2023/07/02 01:05:21;;;;;;;;;;;;;;;14.58;54.20;100512.00;7356401;19;19927;-58
2023/07/02 01:07:46;;;;;;;;;;;;;;;14.53;54.08;100520.06;7356101;19;19944;-58
2023/07/02 01:10:12;;;;;;;;;;;;;;;14.51;54.10;100514.03;7357028;19;19941;-59
2023/07/02 01:12:37;;;;;;;;;;;;;;;14.48;54.19;100508.91;7355700;19;20322;-58
2023/07/02 01:15:04;;;;;;;;;;;;;;;14.46;54.36;100513.34;7356028;19;20245;-58
2023/07/02 01:17:37;;;;;;;;;;;;;;;14.43;54.63;100510.84;7355690;19;20364;-58
2023/07/02 01:20:03;;;;;;;;;;;;;;;14.06;55.03;100456.34;7355082;19;19923;-58
2023/07/02 01:22:30;;;;;;;;;;;;;;;14.40;54.63;100514.47;7355847;19;20678;-58
2023/07/02 01:24:55;;;;;;;;;;;;;;;14.37;54.94;100513.72;7356841;19;20794;-58
2023/07/02 01:27:21;;;;;;;;;;;;;;;14.36;54.62;100512.03;7356492;19;19922;-58
2023/07/02 01:29:47;;;;;;;;;;;;;;;14.35;55.29;100520.81;7353641;19;20022;-58
2023/07/02 01:32:13;;;;;;;;;;;;;;;14.32;55.21;100513.06;7356703;19;19922;-58
2023/07/02 01:34:38;;;;;;;;;;;;;;;14.29;55.20;100521.91;7350803;19;20636;-58
2023/07/02 01:37:04;;;;;;;;;;;;;;;14.26;55.44;100516.78;7355380;19;19970;-58
2023/07/02 01:39:29;;;;;;;;;;;;;;;14.22;54.97;100520.47;7353604;19;20355;-59
2023/07/02 01:42:06;;;;;;;;;;;;;;;14.19;55.57;100515.31;7355801;19;19926;-58
2023/07/02 01:44:31;;;;;;;;;;;;;;;14.15;55.32;100522.47;7354728;19;19917;-58
2023/07/02 01:46:58;;;;;;;;;;;;;;;14.11;55.37;100513.00;7357197;19;20145;-58
2023/07/02 01:49:24;;;;;;;;;;;;;;;14.08;55.21;100518.38;7353148;19;20347;-59
2023/07/02 01:51:53;;;;;;;;;;;;;;;14.03;55.08;100515.09;7351236;19;19915;-58
2023/07/02 01:54:19;;;;;;;;;;;;;;;14.00;55.06;100515.22;7355992;19;20427;-59
2023/07/02 01:56:44;;;;;;;;;;;;;;;13.97;55.36;100524.06;7351734;19;22430;-58
2023/07/02 01:59:09;;;;;;;;;;;;;;;13.95;55.38;100522.44;7351038;19;19919;-59
2023/07/02 02:01:35;;;;;;;;;;;;;;;13.92;55.19;100522.53;7354546;19;20020;-58
2023/07/02 02:04:00;;;;;;;;;;;;;;;13.59;55.31;100473.09;7353590;19;19922;-58
2023/07/02 02:06:25;;;;;;;;;;;;;;;13.85;55.35;100521.06;7353694;19;20011;-59
2023/07/02 02:08:51;;;;;;;;;;;;;;;13.82;55.71;100519.41;7353693;19;19972;-58
2023/07/02 02:11:16;;;;;;;;;;;;;;;13.79;55.49;100521.28;7351302;19;19918;-58
2023/07/02 02:13:41;;;;;;;;;;;;;;;13.76;55.31;100512.63;7353128;19;21867;-59
2023/07/02 02:16:06;;;;;;;;;;;;;;;13.72;55.38;100508.41;7351490;19;19919;-59
2023/07/02 02:18:32;;;;;;;;;;;;;;;13.70;55.18;100517.28;7351658;19;19937;-58
2023/07/02 02:20:57;;;;;;;;;;;;;;;13.35;55.39;100463.53;7352819;19;19943;-58
2023/07/02 02:23:22;;;;;;;;;;;;;;;13.66;55.49;100515.69;7349504;19;19957;-57
2023/07/02 02:25:48;;;;;;;;;;;;;;;13.64;55.29;100518.38;7353679;19;19922;-58
2023/07/02 02:28:13;;;;;;;;;;;;;;;13.64;55.57;100518.38;7351843;19;19976;-58
2023/07/02 02:30:38;;;;;;;;;;;;;;;13.62;55.55;100514.94;7351681;19;19919;-58
2023/07/02 02:33:03;;;;;;;;;;;;;;;13.61;55.53;100512.38;7353159;19;19952;-58
2023/07/02 02:35:29;;;;;;;;;;;;;;;13.59;55.72;100506.34;7351784;19;19959;-57
2023/07/02 02:37:54;;;;;;;;;;;;;;;13.56;55.70;100504.66;7352662;19;20279;-59
2023/07/02 02:40:19;;;;;;;;;;;;;;;13.55;56.05;100507.38;7352307;19;19926;-57
2023/07/02 02:42:44;;;;;;;;;;;;;;;13.53;55.90;100504.78;7360324;19;19922;-59
2023/07/02 02:45:10;;;;;;;;;;;;;;;13.51;55.88;100506.63;7356436;19;20455;-58
2023/07/02 02:47:35;;;;;;;;;;;;;;;13.50;55.85;100511.00;7360694;19;20461;-57
2023/07/02 02:50:00;;;;;;;;;;;;;;;13.49;56.31;100503.22;7356747;19;19923;-58
2023/07/02 02:52:26;;;;;;;;;;;;;;;13.47;56.09;100497.16;7360619;19;19926;-58
2023/07/02 02:54:54;;;;;;;;;;;;;;;13.46;56.04;100513.81;7356566;19;19998;-56
2023/07/02 02:57:19;;;;;;;;;;;;;;;13.43;56.52;100511.28;7359230;19;19955;-57
2023/07/02 02:59:44;;;;;;;;;;;;;;;13.42;56.44;100506.97;7357231;19;20258;-58
2023/07/02 03:02:09;;;;;;;;;;;;;;;13.41;56.72;100521.84;7354865;19;19950;-58
2023/07/02 03:04:35;;;;;;;;;;;;;;;13.39;56.66;100507.09;7359983;19;19934;-59
2023/07/02 03:07:00;;;;;;;;;;;;;;;13.36;56.63;100505.41;7358273;19;20531;-58
2023/07/02 03:09:25;;;;;;;;;;;;;;;13.35;56.46;100511.59;7359535;19;19927;-58
2023/07/02 03:11:51;;;;;;;;;;;;;;;13.33;56.65;100518.66;7358372;19;19923;-58
2023/07/02 03:14:16;;;;;;;;;;;;;;;13.32;56.65;100506.44;7358063;19;19929;-58
2023/07/02 03:16:42;;;;;;;;;;;;;;;13.32;57.05;100505.59;7355968;19;19915;-58
2023/07/02 03:19:07;;;;;;;;;;;;;;;13.30;56.98;100510.06;7356945;19;20356;-58
2023/07/02 03:21:32;;;;;;;;;;;;;;;13.31;56.87;100519.63;7357127;19;19935;-57
2023/07/02 03:23:58;;;;;;;;;;;;;;;13.29;57.00;100501.34;7359117;19;19925;-58
2023/07/02 03:26:23;;;;;;;;;;;;;;;13.29;56.83;100503.09;7359267;19;19974;-59
2023/07/02 03:28:49;;;;;;;;;;;;;;;13.29;56.83;100495.22;7357594;19;20741;-58
2023/07/02 03:31:14;;;;;;;;;;;;;;;13.29;57.11;100496.09;7357933;19;19922;-58
2023/07/02 03:33:40;;;;;;;;;;;;;;;13.28;56.92;100489.13;7358896;19;19918;-58
2023/07/02 03:36:05;;;;;;;;;;;;;;;13.29;57.30;100490.00;7358074;19;19919;-58
2023/07/02 03:38:30;;;;;;;;;;;;;;;13.31;57.04;100503.88;7361132;19;19927;-59
2023/07/02 03:40:56;;;;;;;;;;;;;;;13.33;57.50;100502.03;7357949;19;20026;-58
2023/07/02 03:43:21;;;;;;;;;;;;;;;13.34;57.22;100502.00;7359780;19;19940;-58
2023/07/02 03:45:46;;;;;;;;;;;;;;;13.36;57.32;100496.69;7359299;19;22169;-58
2023/07/02 03:48:11;;;;;;;;;;;;;;;13.39;57.56;100501.84;7359647;19;20370;-58
2023/07/02 03:50:37;;;;;;;;;;;;;;;13.41;57.77;100500.00;7357365;19;19915;-58
2023/07/02 03:53:02;;;;;;;;;;;;;;;13.44;57.63;100495.50;7357487;19;19931;-58
2023/07/02 03:55:27;;;;;;;;;;;;;;;13.47;57.74;100505.00;7358391;19;19914;-58
2023/07/02 03:57:52;;;;;;;;;;;;;;;13.49;57.91;100503.22;7355842;19;19918;-58
2023/07/02 04:00:18;;;;;;;;;;;;;;;13.54;58.05;100505.66;7357766;19;19936;-59
2023/07/02 04:02:43;;;;;;;;;;;;;;;13.55;58.14;100500.34;7358248;19;20742;-59
2023/07/02 04:05:08;;;;;;;;;;;;;;;13.59;57.78;100488.81;7358595;19;20278;-59
2023/07/02 04:07:34;;;;;;;;;;;;;;;13.63;58.04;100494.78;7358619;19;19936;-58
2023/07/02 04:09:59;;;;;;;;;;;;;;;13.65;58.13;100492.97;7358757;19;19923;-58
2023/07/02 04:12:25;;;;;;;;;;;;;;;13.68;58.20;100491.06;7357638;19;19935;-58
2023/07/02 04:14:50;;;;;;;;;;;;;;;13.70;57.85;100489.25;7357380;19;19956;-58
2023/07/02 04:17:15;;;;;;;;;;;;;;;13.75;57.78;100491.72;7358469;19;20274;-58
2023/07/02 04:19:40;;;;;;;;;;;;;;;13.77;58.13;100497.75;7358474;19;19954;-58
2023/07/02 04:22:06;;;;;;;;;;;;;;;13.80;57.86;100487.13;7357050;19;19918;-59
2023/07/02 04:24:31;;;;;;;;;;;;;;;13.82;57.89;100489.69;7358540;19;19948;-58
2023/07/02 04:26:56;;;;;;;;;;;;;;;13.84;58.32;100493.97;7354184;19;19922;-58
2023/07/02 04:29:21;;;;;;;;;;;;;;;13.86;58.10;100491.28;7358355;19;19918;-58
2023/07/02 04:31:47;;;;;;;;;;;;;;;13.89;58.62;100492.03;7356739;19;20285;-58
2023/07/02 04:34:12;;;;;;;;;;;;;;;13.91;58.41;100489.31;7359255;19;19938;-59
2023/07/02 04:36:37;;;;;;;;;;;;;;;13.94;58.41;100483.97;7356008;19;19952;-57
2023/07/02 04:39:02;;;;;;;;;;;;;;;13.96;58.53;100487.38;7358053;19;21197;-58
2023/07/02 04:41:29;;;;;;;;;;;;;;;13.97;58.52;100494.31;7355522;19;20683;-58
2023/07/02 04:43:54;;;;;;;;;;;;;;;13.99;58.64;100492.50;7357008;19;19926;-58
2023/07/02 04:46:20;;;;;;;;;;;;;;;14.02;58.44;100492.38;7356476;19;19942;-58
2023/07/02 04:48:45;;;;;;;;;;;;;;;14.05;58.17;100497.50;7356813;19;20626;-58
2023/07/02 04:51:10;;;;;;;;;;;;;;;14.06;58.63;100491.34;7355568;19;19952;-58
2023/07/02 04:53:37;;;;;;;;;;;;;;;14.10;58.28;100494.72;7356957;19;19933;-58
2023/07/02 04:56:02;;;;;;;;;;;;;;;14.11;58.71;100492.00;7357451;19;20490;-59
2023/07/02 04:58:28;;;;;;;;;;;;;;;14.13;58.72;100492.78;7355516;19;19927;-58
2023/07/02 05:00:53;;;;;;;;;;;;;;;14.15;58.48;100490.97;7355412;19;20463;-58
2023/07/02 05:03:18;;;;;;;;;;;;;;;14.18;58.57;100493.44;7354844;19;19951;-58
2023/07/02 05:05:43;;;;;;;;;;;;;;;14.20;58.88;100502.16;7355112;19;20341;-58
2023/07/02 05:08:10;;;;;;;;;;;;;;;14.22;58.79;100492.41;7357903;19;19930;-58
2023/07/02 05:10:35;;;;;;;;;;;;;;;14.24;58.54;100498.47;7355836;19;19931;-59
2023/07/02 05:13:00;;;;;;;;;;;;;;;14.26;58.51;100496.63;7356020;19;19919;-58
2023/07/02 05:15:26;;;;;;;;;;;;;;;14.07;58.63;100464.16;7356834;19;20017;-57
2023/07/02 05:17:51;;;;;;;;;;;;;;;14.32;58.79;100502.56;7356821;19;19926;-58
2023/07/02 05:20:16;;;;;;;;;;;;;;;14.35;58.76;100507.69;7355685;19;19952;-58
2023/07/02 05:22:41;;;;;;;;;;;;;;;14.37;59.04;100500.59;7355102;19;20647;-58
2023/07/02 05:25:07;;;;;;;;;;;;;;;14.41;58.85;100502.19;7356850;19;19915;-58
2023/07/02 05:27:32;;;;;;;;;;;;;;;14.43;59.02;100497.69;7354342;19;19919;-59
2023/07/02 05:29:57;;;;;;;;;;;;;;;14.46;59.01;100492.31;7356684;19;19926;-59
2023/07/02 05:32:23;;;;;;;;;;;;;;;14.48;58.71;100501.88;7355562;19;19941;-59
2023/07/02 05:34:48;;;;;;;;;;;;;;;14.51;58.65;100493.88;7356161;19;19922;-59
2023/07/02 05:37:13;;;;;;;;;;;;;;;14.54;58.97;100492.88;7355596;19;19915;-58
2023/07/02 05:39:38;;;;;;;;;;;;;;;14.57;58.70;100495.38;7355144;19;19926;-59
2023/07/02 05:42:04;;;;;;;;;;;;;;;14.61;58.79;100501.38;7354593;19;19927;-58
2023/07/02 05:44:29;;;;;;;;;;;;;;;14.65;58.96;100509.06;7355587;19;19982;-58
2023/07/02 05:46:54;;;;;;;;;;;;;;;14.67;59.08;100496.69;7354338;19;19951;-59
2023/07/02 05:49:20;;;;;;;;;;;;;;;14.70;58.80;100507.09;7354292;19;20447;-58
2023/07/02 05:51:45;;;;;;;;;;;;;;;14.74;58.73;100502.53;7353171;19;19935;-58
2023/07/02 05:54:10;;;;;;;;;;;;;;;14.76;59.07;100506.81;7356473;19;20927;-59
2023/07/02 05:56:35;;;;;;;;;;;;;;;14.79;59.01;100517.19;7355298;19;19943;-59
2023/07/02 05:59:01;;;;;;;;;;;;;;;14.83;59.01;100498.66;7351262;19;19922;-59
2023/07/02 06:01:26;;;;;;;;;;;;;;;14.86;58.77;100506.44;7353531;19;19923;-59
2023/07/02 06:03:51;;;;;;;;;;;;;;;14.89;59.00;100503.66;7353088;19;20631;-58
2023/07/02 06:06:16;;;;;;;;;;;;;;;14.93;58.85;100507.84;7353996;19;19994;-57
2023/07/02 06:08:42;;;;;;;;;;;;;;;14.96;59.18;100510.38;7353643;19;20380;-58
2023/07/02 06:11:10;;;;;;;;;;;;;;;14.99;58.86;100503.19;7353712;19;20011;-59
2023/07/02 06:13:35;;;;;;;;;;;;;;;15.02;58.99;100502.19;7353276;19;19923;-58
2023/07/02 06:16:00;;;;;;;;;;;;;;;15.08;59.10;100501.06;7359079;19;19947;-59
2023/07/02 06:18:25;;;;;;;;;;;;;;;15.12;59.03;100505.28;7358350;19;19919;-58
2023/07/02 06:20:51;;;;;;;;;;;;;;;15.16;59.32;100499.81;7359000;19;19942;-58
2023/07/02 06:23:16;;;;;;;;;;;;;;;15.19;58.99;100504.91;7358612;19;19919;-59
2023/07/02 06:25:41;;;;;;;;;;;;;;;15.24;59.12;100502.09;7360476;19;19936;-58
2023/07/02 06:28:07;;;;;;;;;;;;;;;15.25;59.00;100494.13;7356986;19;19927;-58
2023/07/02 06:30:32;;;;;;;;;;;;;;;15.29;59.12;100495.69;7359953;19;19946;-59
2023/07/02 06:32:57;;;;;;;;;;;;;;;15.35;59.38;100488.44;7360330;19;19935;-59
2023/07/02 06:35:22;;;;;;;;;;;;;;;15.42;59.22;100489.88;7356293;19;19934;-58
2023/07/02 06:37:48;;;;;;;;;;;;;;;15.42;59.20;100485.47;7360451;19;19938;-57
2023/07/02 06:40:13;;;;;;;;;;;;;;;15.51;59.31;100484.16;7356979;19;19923;-59
2023/07/02 06:42:38;;;;;;;;;;;;;;;15.56;58.87;100493.59;7360392;19;19926;-59
2023/07/02 06:45:04;;;;;;;;;;;;;;;15.62;59.09;100496.84;7357479;19;19922;-58
2023/07/02 06:47:29;;;;;;;;;;;;;;;15.67;58.99;100485.22;7360634;19;19919;-58
2023/07/02 06:49:55;;;;;;;;;;;;;;;15.72;59.05;100496.38;7358091;19;19928;-58
2023/07/02 06:52:20;;;;;;;;;;;;;;;15.77;58.77;100494.38;7358607;19;19923;-58
2023/07/02 06:54:45;;;;;;;;;;;;;;;15.82;58.98;100497.66;7357494;19;20458;-58
2023/07/02 06:57:12;;;;;;;;;;;;;;;15.87;58.68;100488.69;7358703;19;19947;-59
2023/07/02 06:59:37;;;;;;;;;;;;;;;15.91;58.60;100487.59;7356577;19;19943;-58
2023/07/02 07:02:02;;;;;;;;;;;;;;;15.95;58.98;100494.41;7358470;19;19914;-58
2023/07/02 07:04:28;;;;;;;;;;;;;;;16.01;58.82;100496.75;7360279;19;19982;-59
2023/07/02 07:06:55;;;;;;;;;;;;;;;16.08;58.71;100495.53;7357963;19;19949;-59
2023/07/02 07:09:20;;;;;;;;;;;;;;;16.13;58.49;100493.53;7358635;19;19951;-58
2023/07/02 07:11:45;;;;;;;;;;;;;;;16.17;58.83;100492.47;7358417;19;20639;-59
2023/07/02 07:14:10;;;;;;;;;;;;;;;16.23;58.41;100489.53;7357703;19;19918;-58
2023/07/02 07:16:36;;;;;;;;;;;;;;;16.29;58.55;100493.63;7358458;19;19939;-58
2023/07/02 07:19:01;;;;;;;;;;;;;;;16.35;58.56;100496.81;7356503;19;20241;-58
2023/07/02 07:21:26;;;;;;;;;;;;;;;16.40;58.24;100506.28;7358686;19;20313;-58
2023/07/02 07:23:52;;;;;;;;;;;;;;;16.43;58.37;100506.97;7359175;19;19935;-58
2023/07/02 07:26:17;;;;;;;;;;;;;;;16.49;58.52;100496.13;7355705;19;20380;-59
2023/07/02 07:28:42;;;;;;;;;;;;;;;16.56;58.42;100502.78;7356520;19;19919;-59
2023/07/02 07:31:07;;;;;;;;;;;;;;;16.61;58.34;100510.47;7358227;19;19922;-59
2023/07/02 07:33:33;;;;;;;;;;;;;;;16.65;58.21;100498.84;7358403;19;19926;-58
2023/07/02 07:35:58;;;;;;;;;;;;;;;16.70;57.84;100507.34;7356690;19;20196;-58
2023/07/02 07:38:23;;;;;;;;;;;;;;;16.76;58.01;100498.31;7358507;19;20486;-58
2023/07/02 07:40:48;;;;;;;;;;;;;;;16.79;57.84;100493.75;7355726;19;20646;-59
2023/07/02 07:43:14;;;;;;;;;;;;;;;16.82;57.74;100490.94;7357971;19;19919;-59
2023/07/02 07:45:39;;;;;;;;;;;;;;;16.90;57.82;100489.69;7356493;19;19990;-58
2023/07/02 07:48:05;;;;;;;;;;;;;;;16.95;57.35;100493.78;7358527;19;20609;-58
2023/07/02 07:50:30;;;;;;;;;;;;;;;16.99;57.21;100491.84;7354881;19;19919;-58
2023/07/02 07:52:55;;;;;;;;;;;;;;;17.05;57.26;100488.88;7358601;19;19939;-58
2023/07/02 07:55:21;;;;;;;;;;;;;;;17.10;57.08;100482.44;7355963;19;20640;-58
2023/07/02 07:57:47;;;;;;;;;;;;;;;17.17;56.81;100487.38;7356840;19;19949;-58
2023/07/02 08:00:12;;;;;;;;;;;;;;;17.23;56.80;100487.88;7354506;19;19935;-59
2023/07/02 08:02:38;;;;;;;;;;;;;;;17.29;56.84;100492.84;7358418;19;19926;-58
2023/07/02 08:05:04;;;;;;;;;;;;;;;17.36;56.91;100493.38;7357774;19;19982;-58
2023/07/02 08:07:31;;;;;;;;;;;;;;;17.43;56.72;100493.88;7353851;19;20200;-57
2023/07/02 08:09:56;;;;;;;;;;;;;;;17.16;56.55;100444.31;7356208;19;20518;-59
2023/07/02 08:12:21;;;;;;;;;;;;;;;17.55;56.72;100493.22;7358878;19;20010;-59
2023/07/02 08:14:47;;;;;;;;;;;;;;;17.61;56.37;100492.88;7355110;19;19964;-59
2023/07/02 08:17:12;;;;;;;;;;;;;;;17.70;56.00;100500.31;7355311;19;19922;-58
2023/07/02 08:19:37;;;;;;;;;;;;;;;17.77;56.36;100488.47;7357036;19;20771;-59
2023/07/02 08:22:03;;;;;;;;;;;;;;;17.85;56.03;100482.78;7356572;19;19918;-59
2023/07/02 08:24:28;;;;;;;;;;;;;;;17.93;55.84;100492.91;7357313;19;20025;-59
2023/07/02 08:26:53;;;;;;;;;;;;;;;18.01;55.70;100493.34;7357696;19;20462;-60
2023/07/02 08:29:19;;;;;;;;;;;;;;;18.07;55.45;100495.63;7355156;19;20442;-59
2023/07/02 08:31:44;;;;;;;;;;;;;;;18.13;55.31;100489.97;7352631;19;20010;-58
2023/07/02 08:34:09;;;;;;;;;;;;;;;18.20;54.89;100491.34;7357460;19;19927;-59
2023/07/02 08:36:35;;;;;;;;;;;;;;;18.24;55.01;100486.72;7355760;19;19926;-58
2023/07/02 08:39:00;;;;;;;;;;;;;;;18.31;54.74;100494.22;7356493;19;19945;-58
2023/07/02 08:41:25;;;;;;;;;;;;;;;18.33;54.52;100497.59;7354810;19;19960;-58
2023/07/02 08:43:55;;;;;;;;;;;;;;;18.36;53.83;100494.78;7355348;19;19926;-58
2023/07/02 08:46:21;;;;;;;;;;;;;;;18.36;53.97;100488.66;7356824;19;19986;-59
2023/07/02 08:48:46;;;;;;;;;;;;;;;18.33;53.60;100487.03;7355855;19;23767;-58
2023/07/02 08:51:12;;;;;;;;;;;;;;;18.30;53.97;100492.50;7356010;19;19918;-58
2023/07/02 08:53:37;;;;;;;;;;;;;;;18.29;53.34;100490.78;7354986;19;22200;-58
2023/07/02 08:56:03;;;;;;;;;;;;;;;18.26;53.75;100501.56;7356124;19;20477;-59
2023/07/02 08:58:28;;;;;;;;;;;;;;;18.24;53.36;100502.56;7355127;19;19923;-58
2023/07/02 09:01:10;;;;;;;;;;;;;;;18.20;53.10;100501.03;7355274;19;20277;-58
2023/07/02 09:03:39;;;;;;;;;;;;;;;18.17;53.07;100496.78;7356978;19;19933;-58
2023/07/02 09:06:05;;;;;;;;;;;;;;;18.16;53.47;100489.81;7349646;19;19935;-58
2023/07/02 09:08:33;;;;;;;;;;;;;;;18.12;53.48;100483.00;7355560;19;19919;-58
2023/07/02 09:11:11;;;;;;;;;;;;;;;18.10;53.06;100479.59;7354935;19;19925;-59
2023/07/02 09:13:46;;;;;;;;;;;;;;;18.09;53.17;100483.16;7356667;19;20366;-58
2023/07/02 09:16:21;;;;;;;;;;;;;;;18.08;53.53;100487.59;7351263;19;19919;-58
2023/07/02 09:19:03;;;;;;;;;;;;;;;18.12;54.18;100477.72;7356629;19;19949;-59
2023/07/02 09:21:41;;;;;;;;;;;;;;;18.20;54.08;100480.78;7356083;19;20552;-58
2023/07/02 09:24:13;;;;;;;;;;;;;;;18.32;54.42;100480.03;7356169;19;19923;-58
2023/07/02 09:26:42;;;;;;;;;;;;;;;18.45;54.37;100474.03;7353611;19;19926;-59
2023/07/02 09:29:07;;;;;;;;;;;;;;;18.59;54.28;100476.72;7352146;19;19933;-59
2023/07/02 09:31:42;;;;;;;;;;;;;;;18.75;54.25;100471.38;7355911;19;19923;-59
2023/07/02 09:34:08;;;;;;;;;;;;;;;18.91;54.26;100473.03;7354914;19;19927;-59
2023/07/02 09:36:33;;;;;;;;;;;;;;;19.11;54.19;100473.56;7354679;19;20509;-58
2023/07/02 09:38:59;;;;;;;;;;;;;;;19.29;54.29;100464.50;7353355;19;19915;-59
2023/07/02 09:41:24;;;;;;;;;;;;;;;19.48;53.95;100466.00;7356231;19;19953;-59
2023/07/02 09:43:49;;;;;;;;;;;;;;;19.63;53.28;100459.75;7353479;19;19930;-59
2023/07/02 09:46:15;;;;;;;;;;;;;;;19.78;52.89;100460.56;7355508;19;19929;-59
2023/07/02 09:48:40;;;;;;;;;;;;;;;19.90;52.09;100447.34;7352952;19;19930;-58
2023/07/02 09:51:05;;;;;;;;;;;;;;;20.01;51.11;100444.00;7353135;19;21379;-59
2023/07/02 09:53:31;;;;;;;;;;;;;;;20.09;50.70;100440.84;7353385;19;19934;-58
2023/07/02 09:55:56;;;;;;;;;;;;;;;20.19;50.94;100441.94;7356220;19;20320;-59
2023/07/02 09:58:22;;;;;;;;;;;;;;;20.30;50.13;100452.66;7351361;19;20614;-58
2023/07/02 10:00:47;;;;;;;;;;;;;;;20.39;49.29;100443.25;7354601;19;19919;-59
2023/07/02 10:03:12;;;;;;;;;;;;;;;20.44;49.02;100441.97;7354594;19;20745;-59
2023/07/02 10:05:39;;;;;;;;;;;;;;;20.50;49.10;100455.81;7353204;19;19930;-58
2023/07/02 10:08:16;;;;;;;;;;;;;;;20.56;48.86;100442.13;7354416;19;19930;-59
2023/07/02 10:10:42;;;;;;;;;;;;;;;20.62;48.43;100462.94;7353961;19;19955;-58
2023/07/02 10:13:07;;;;;;;;;;;;;;;20.68;48.83;100438.63;7355718;19;22253;-58
2023/07/02 10:15:37;;;;;;;;;;;;;;;20.77;48.27;100443.28;7351313;19;20006;-58
2023/07/02 10:18:02;;;;;;;;;;;;;;;20.89;48.54;100431.84;7348954;19;19918;-59
2023/07/02 10:20:35;;;;;;;;;;;;;;;21.08;48.36;100435.84;7354867;19;20364;-58
2023/07/02 10:23:01;;;;;;;;;;;;;;;21.33;48.07;100434.97;7352595;19;20038;-59
2023/07/02 10:25:28;;;;;;;;;;;;;;;21.64;46.26;100441.56;7354360;19;21262;-59
2023/07/02 10:27:54;;;;;;;;;;;;;;;21.89;46.77;100438.81;7353861;19;20452;-59
2023/07/02 10:30:29;;;;;;;;;;;;;;;22.15;45.71;100428.06;7353342;19;22881;-58
2023/07/02 10:32:55;;;;;;;;;;;;;;;22.16;45.18;100397.88;7354322;19;19922;-58
2023/07/02 10:35:20;;;;;;;;;;;;;;;22.53;45.23;100433.16;7354633;19;21228;-58
2023/07/02 10:37:45;;;;;;;;;;;;;;;22.71;45.26;100430.88;7354022;19;19922;-59
2023/07/02 10:40:11;;;;;;;;;;;;;;;22.93;45.29;100432.75;7353398;19;20404;-59
2023/07/02 10:42:46;;;;;;;;;;;;;;;23.11;45.01;100433.09;7353941;19;20716;-59
2023/07/02 10:45:12;;;;;;;;;;;;;;;23.24;44.48;100440.00;7352780;19;19943;-58
2023/07/02 10:47:41;;;;;;;;;;;;;;;23.30;43.28;100428.84;7355636;19;20332;-58
2023/07/02 10:50:22;;;;;;;;;;;;;;;23.30;42.21;100434.16;7349391;19;20012;-58
2023/07/02 10:52:50;;;;;;;;;;;;;;;23.31;42.58;100424.34;7353824;19;19926;-59
2023/07/02 10:55:25;;;;;;;;;;;;;;;23.41;43.14;100430.63;7352046;19;20374;-58
2023/07/02 10:57:51;;;;;;;;;;;;;;;23.64;43.03;100419.97;7352857;19;20410;-58
2023/07/02 11:00:16;;;;;;;;;;;;;;;23.90;43.15;100418.66;7351484;19;20609;-59
2023/07/02 11:02:42;;;;;;;;;;;;;;;24.25;42.77;100425.53;7358529;19;19919;-59
2023/07/02 11:05:12;;;;;;;;;;;;;;;24.61;41.74;100420.75;7358048;19;20605;-58
2023/07/02 11:07:38;;;;;;;;;;;;;;;24.65;40.65;100374.97;7360402;19;19919;-59
2023/07/02 11:10:04;;;;;;;;;;;;;;;25.05;39.78;100422.25;7358649;19;19988;-59
2023/07/02 11:12:30;;;;;;;;;;;;;;;25.08;38.69;100409.47;7361422;19;19934;-58
2023/07/02 11:14:55;;;;;;;;;;;;;;;25.02;38.53;100420.66;7360033;19;20086;-59
2023/07/02 11:17:25;;;;;;;;;;;;;;;24.91;38.28;100420.75;7361005;19;20756;-58
2023/07/02 11:19:50;;;;;;;;;;;;;;;24.76;37.63;100414.09;7357483;19;19919;-58
2023/07/02 11:22:16;;;;;;;;;;;;;;;24.63;38.04;100413.44;7361168;19;20833;-59
2023/07/02 11:24:41;;;;;;;;;;;;;;;24.53;38.97;100422.28;7359204;19;19938;-59
2023/07/02 11:27:07;;;;;;;;;;;;;;;24.55;38.80;100398.94;7361079;19;20667;-58
2023/07/02 11:29:33;;;;;;;;;;;;;;;24.64;38.93;100405.31;7359399;19;19936;-58
2023/07/02 11:32:09;;;;;;;;;;;;;;;24.77;37.76;100410.44;7359776;19;19922;-58
2023/07/02 11:34:34;;;;;;;;;;;;;;;24.82;38.43;100408.22;7358380;19;19933;-58
2023/07/02 11:36:59;;;;;;;;;;;;;;;24.57;38.39;100350.75;7359184;19;20065;-58
2023/07/02 11:39:25;;;;;;;;;;;;;;;24.88;38.61;100418.34;7357471;19;19932;-59
2023/07/02 11:41:50;;;;;;;;;;;;;;;24.93;38.39;100404.59;7358418;19;19918;-58
2023/07/02 11:44:16;;;;;;;;;;;;;;;25.01;37.72;100405.63;7359440;19;19918;-59
2023/07/02 11:46:41;;;;;;;;;;;;;;;25.06;38.09;100405.22;7358425;19;20656;-58
2023/07/02 11:49:08;;;;;;;;;;;;;;;25.08;37.67;100411.28;7356031;19;20474;-59
2023/07/02 11:51:34;;;;;;;;;;;;;;;25.12;37.34;100404.69;7357470;19;20538;-58
2023/07/02 11:54:00;;;;;;;;;;;;;;;25.18;37.26;100397.97;7359541;19;19949;-59
2023/07/02 11:56:25;;;;;;;;;;;;;;;25.16;37.04;100405.28;7355817;19;21355;-58
2023/07/02 11:58:50;;;;;;;;;;;;;;;25.16;36.49;100397.28;7359035;19;19929;-58
2023/07/02 12:01:15;;;;;;;;;;;;;;;24.90;36.02;100368.31;7357047;19;19927;-59
2023/07/02 12:03:41;;;;;;;;;;;;;;;25.00;35.83;100416.44;7359724;19;19919;-59
2023/07/02 12:06:06;;;;;;;;;;;;;;;24.64;36.49;100372.44;7359242;19;19944;-58
2023/07/02 12:08:31;;;;;;;;;;;;;;;24.67;36.47;100409.53;7359379;19;19940;-59
2023/07/02 12:10:56;;;;;;;;;;;;;;;24.52;37.28;100399.19;7358769;19;19915;-58
2023/07/02 12:13:22;;;;;;;;;;;;;;;24.47;37.95;100388.06;7358042;19;20709;-58
2023/07/02 12:15:47;;;;;;;;;;;;;;;24.60;38.86;100393.22;7356230;19;20407;-59
2023/07/02 12:18:13;;;;;;;;;;;;;;;24.83;39.24;100385.84;7356809;19;19919;-59
2023/07/02 12:20:39;;;;;;;;;;;;;;;25.14;40.06;100396.53;7358123;19;20320;-58
2023/07/02 12:23:05;;;;;;;;;;;;;;;25.48;40.03;100389.03;7358352;19;19934;-58
2023/07/02 12:25:30;;;;;;;;;;;;;;;25.86;39.37;100382.91;7357323;19;19923;-58
2023/07/02 12:27:55;;;;;;;;;;;;;;;26.21;38.52;100398.38;7358925;19;19955;-59
2023/07/02 12:30:21;;;;;;;;;;;;;;;26.51;37.29;100400.06;7355872;19;19923;-59